sensor_id;sensor_type;location;lat;lon;timestamp;temperature;humidity
17715;DHT22;8977;50.902;4.314;2024-01-30T00:01:25;12.60;99.90
17715;DHT22;8977;50.902;4.314;2024-01-30T00:03:52;12.60;99.90
17715;DHT22;8977;50.902;4.314;2024-01-30T00:06:19;12.60;99.90
17715;DHT22;8977;50.902;4.314;2024-01-30T00:08:47;12.60;99.90
17715;DHT22;8977;50.902;4.314;2024-01-30T00:11:14;12.70;99.90
17715;DHT22;8977;50.902;4.314;2024-01-30T00:13:41;12.60;99.90
17715;DHT22;8977;50.902;4.314;2024-01-30T00:16:08;12.60;99.90
17715;DHT22;8977;50.902;4.314;2024-01-30T00:18:37;12.60;99.90
17715;DHT22;8977;50.902;4.314;2024-01-30T00:21:06;12.60;99.90
17715;DHT22;8977;50.902;4.314;2024-01-30T00:23:33;12.60;99.90
17715;DHT22;8977;50.902;4.314;2024-01-30T00:26:00;12.60;99.90
17715;DHT22;8977;50.902;4.314;2024-01-30T00:28:27;12.50;99.90
17715;DHT22;8977;50.902;4.314;2024-01-30T00:30:54;12.50;99.90
17715;DHT22;8977;50.902;4.314;2024-01-30T00:33:21;12.60;99.90
17715;DHT22;8977;50.902;4.314;2024-01-30T00:35:49;12.60;99.90
17715;DHT22;8977;50.902;4.314;2024-01-30T00:38:16;12.60;99.90
17715;DHT22;8977;50.902;4.314;2024-01-30T00:40:43;12.60;99.90
17715;DHT22;8977;50.902;4.314;2024-01-30T00:43:10;12.60;99.90
17715;DHT22;8977;50.902;4.314;2024-01-30T00:45:37;12.60;99.90
17715;DHT22;8977;50.902;4.314;2024-01-30T00:48:04;12.60;99.90
17715;DHT22;8977;50.902;4.314;2024-01-30T00:50:31;12.60;99.90
17715;DHT22;8977;50.902;4.314;2024-01-30T00:53:00;12.60;99.90
17715;DHT22;8977;50.902;4.314;2024-01-30T00:55:27;12.60;99.90
17715;DHT22;8977;50.902;4.314;2024-01-30T00:57:54;12.60;99.90
17715;DHT22;8977;50.902;4.314;2024-01-30T01:00:21;12.60;99.90
17715;DHT22;8977;50.902;4.314;2024-01-30T01:02:54;12.60;99.90
17715;DHT22;8977;50.902;4.314;2024-01-30T01:05:21;12.70;99.90
17715;DHT22;8977;50.902;4.314;2024-01-30T01:07:48;12.70;99.90
17715;DHT22;8977;50.902;4.314;2024-01-30T01:10:17;12.70;99.90
17715;DHT22;8977;50.902;4.314;2024-01-30T01:12:44;12.60;99.90
17715;DHT22;8977;50.902;4.314;2024-01-30T01:15:11;12.60;99.90
17715;DHT22;8977;50.902;4.314;2024-01-30T01:17:38;12.60;99.90
17715;DHT22;8977;50.902;4.314;2024-01-30T01:20:07;12.70;99.90
17715;DHT22;8977;50.902;4.314;2024-01-30T01:22:34;12.70;99.90
17715;DHT22;8977;50.902;4.314;2024-01-30T01:25:02;12.70;99.90
17715;DHT22;8977;50.902;4.314;2024-01-30T01:27:33;12.60;99.90
17715;DHT22;8977;50.902;4.314;2024-01-30T01:30:07;12.70;99.90
17715;DHT22;8977;50.902;4.314;2024-01-30T01:32:35;12.70;99.90
17715;DHT22;8977;50.902;4.314;2024-01-30T01:35:02;12.70;99.90
17715;DHT22;8977;50.902;4.314;2024-01-30T01:37:31;12.70;99.90
17715;DHT22;8977;50.902;4.314;2024-01-30T01:39:59;12.70;99.90
17715;DHT22;8977;50.902;4.314;2024-01-30T01:42:26;12.70;99.90
17715;DHT22;8977;50.902;4.314;2024-01-30T01:44:54;12.70;99.90
17715;DHT22;8977;50.902;4.314;2024-01-30T01:47:21;12.70;99.90
17715;DHT22;8977;50.902;4.314;2024-01-30T01:49:48;12.70;99.90
17715;DHT22;8977;50.902;4.314;2024-01-30T01:52:15;12.70;99.90
17715;DHT22;8977;50.902;4.314;2024-01-30T01:54:43;12.70;99.90
17715;DHT22;8977;50.902;4.314;2024-01-30T01:57:10;12.70;99.90
17715;DHT22;8977;50.902;4.314;2024-01-30T01:59:37;12.70;99.90
17715;DHT22;8977;50.902;4.314;2024-01-30T02:02:08;12.70;99.90
17715;DHT22;8977;50.902;4.314;2024-01-30T02:04:38;12.70;99.90
17715;DHT22;8977;50.902;4.314;2024-01-30T02:07:05;12.70;99.90
17715;DHT22;8977;50.902;4.314;2024-01-30T02:09:32;12.80;99.90
17715;DHT22;8977;50.902;4.314;2024-01-30T02:11:59;12.80;99.90
17715;DHT22;8977;50.902;4.314;2024-01-30T02:14:26;12.70;99.90
17715;DHT22;8977;50.902;4.314;2024-01-30T02:16:52;12.80;99.90
17715;DHT22;8977;50.902;4.314;2024-01-30T02:19:21;12.80;99.90
17715;DHT22;8977;50.902;4.314;2024-01-30T02:21:49;12.70;99.90
17715;DHT22;8977;50.902;4.314;2024-01-30T02:24:17;12.70;99.90
17715;DHT22;8977;50.902;4.314;2024-01-30T02:26:46;12.70;99.90
17715;DHT22;8977;50.902;4.314;2024-01-30T02:29:13;12.80;99.90
17715;DHT22;8977;50.902;4.314;2024-01-30T02:31:40;12.80;99.90
17715;DHT22;8977;50.902;4.314;2024-01-30T02:34:07;12.70;99.90
17715;DHT22;8977;50.902;4.314;2024-01-30T02:36:34;12.70;99.90
17715;DHT22;8977;50.902;4.314;2024-01-30T02:39:03;12.70;99.90
17715;DHT22;8977;50.902;4.314;2024-01-30T02:41:30;12.70;99.90
17715;DHT22;8977;50.902;4.314;2024-01-30T02:43:57;12.70;99.90
17715;DHT22;8977;50.902;4.314;2024-01-30T02:46:24;12.70;99.90
17715;DHT22;8977;50.902;4.314;2024-01-30T02:48:51;12.70;99.90
17715;DHT22;8977;50.902;4.314;2024-01-30T02:51:18;12.70;99.90
17715;DHT22;8977;50.902;4.314;2024-01-30T02:53:45;12.80;99.90
17715;DHT22;8977;50.902;4.314;2024-01-30T02:56:13;12.70;99.90
17715;DHT22;8977;50.902;4.314;2024-01-30T02:58:40;12.80;99.90
17715;DHT22;8977;50.902;4.314;2024-01-30T03:01:07;12.80;99.90
17715;DHT22;8977;50.902;4.314;2024-01-30T03:03:34;12.80;99.90
17715;DHT22;8977;50.902;4.314;2024-01-30T03:06:01;12.80;99.90
17715;DHT22;8977;50.902;4.314;2024-01-30T03:08:28;12.70;99.90
17715;DHT22;8977;50.902;4.314;2024-01-30T03:10:55;12.70;99.90
17715;DHT22;8977;50.902;4.314;2024-01-30T03:13:23;12.70;99.90
17715;DHT22;8977;50.902;4.314;2024-01-30T03:15:50;12.70;99.90
17715;DHT22;8977;50.902;4.314;2024-01-30T03:18:17;12.80;99.90
17715;DHT22;8977;50.902;4.314;2024-01-30T03:20:44;12.80;99.90
17715;DHT22;8977;50.902;4.314;2024-01-30T03:23:11;12.80;99.90
17715;DHT22;8977;50.902;4.314;2024-01-30T03:25:38;12.80;99.90
17715;DHT22;8977;50.902;4.314;2024-01-30T03:28:05;12.80;99.90
17715;DHT22;8977;50.902;4.314;2024-01-30T03:30:34;12.70;99.90
17715;DHT22;8977;50.902;4.314;2024-01-30T03:33:01;12.80;99.90
17715;DHT22;8977;50.902;4.314;2024-01-30T03:35:28;12.80;99.90
17715;DHT22;8977;50.902;4.314;2024-01-30T03:37:55;12.80;99.90
17715;DHT22;8977;50.902;4.314;2024-01-30T03:40:21;12.80;99.90
17715;DHT22;8977;50.902;4.314;2024-01-30T03:42:48;12.80;99.90
17715;DHT22;8977;50.902;4.314;2024-01-30T03:45:15;12.80;99.90
17715;DHT22;8977;50.902;4.314;2024-01-30T03:47:46;12.80;99.90
17715;DHT22;8977;50.902;4.314;2024-01-30T03:50:13;12.80;99.90
17715;DHT22;8977;50.902;4.314;2024-01-30T03:52:40;12.80;99.90
17715;DHT22;8977;50.902;4.314;2024-01-30T03:55:07;12.70;99.90
17715;DHT22;8977;50.902;4.314;2024-01-30T03:57:34;12.80;99.90
17715;DHT22;8977;50.902;4.314;2024-01-30T04:00:01;12.80;99.90
17715;DHT22;8977;50.902;4.314;2024-01-30T04:02:30;12.80;99.90
17715;DHT22;8977;50.902;4.314;2024-01-30T04:04:58;12.90;99.90
17715;DHT22;8977;50.902;4.314;2024-01-30T04:07:25;12.90;99.90
17715;DHT22;8977;50.902;4.314;2024-01-30T04:09:52;12.80;99.90
17715;DHT22;8977;50.902;4.314;2024-01-30T04:12:19;12.80;99.90
17715;DHT22;8977;50.902;4.314;2024-01-30T04:14:46;12.80;99.90
17715;DHT22;8977;50.902;4.314;2024-01-30T04:17:13;12.80;99.90
17715;DHT22;8977;50.902;4.314;2024-01-30T04:19:40;12.80;99.90
17715;DHT22;8977;50.902;4.314;2024-01-30T04:22:08;12.80;99.90
17715;DHT22;8977;50.902;4.314;2024-01-30T04:24:35;12.80;99.90
17715;DHT22;8977;50.902;4.314;2024-01-30T04:27:02;12.80;99.90
17715;DHT22;8977;50.902;4.314;2024-01-30T04:29:29;12.80;99.90
17715;DHT22;8977;50.902;4.314;2024-01-30T04:31:57;12.80;99.90
17715;DHT22;8977;50.902;4.314;2024-01-30T04:34:24;12.80;99.90
17715;DHT22;8977;50.902;4.314;2024-01-30T04:36:51;12.80;99.90
17715;DHT22;8977;50.902;4.314;2024-01-30T04:39:21;12.70;99.90
17715;DHT22;8977;50.902;4.314;2024-01-30T04:41:47;12.70;99.90
17715;DHT22;8977;50.902;4.314;2024-01-30T04:44:14;12.80;99.90
17715;DHT22;8977;50.902;4.314;2024-01-30T04:46:41;12.70;99.90
17715;DHT22;8977;50.902;4.314;2024-01-30T04:49:08;12.70;99.90
17715;DHT22;8977;50.902;4.314;2024-01-30T04:51:35;12.70;99.90
17715;DHT22;8977;50.902;4.314;2024-01-30T04:54:03;12.70;99.90
17715;DHT22;8977;50.902;4.314;2024-01-30T04:56:31;12.70;99.90
17715;DHT22;8977;50.902;4.314;2024-01-30T04:58:58;12.70;99.90
17715;DHT22;8977;50.902;4.314;2024-01-30T05:01:25;12.70;99.90
17715;DHT22;8977;50.902;4.314;2024-01-30T05:03:52;12.60;99.90
17715;DHT22;8977;50.902;4.314;2024-01-30T05:06:24;12.60;99.90
17715;DHT22;8977;50.902;4.314;2024-01-30T05:08:52;12.70;99.90
17715;DHT22;8977;50.902;4.314;2024-01-30T05:11:19;12.70;99.90
17715;DHT22;8977;50.902;4.314;2024-01-30T05:13:47;12.70;99.90
17715;DHT22;8977;50.902;4.314;2024-01-30T05:16:15;12.70;99.90
17715;DHT22;8977;50.902;4.314;2024-01-30T05:18:42;12.70;99.90
17715;DHT22;8977;50.902;4.314;2024-01-30T05:21:10;12.70;99.90
17715;DHT22;8977;50.902;4.314;2024-01-30T05:23:37;12.70;99.90
17715;DHT22;8977;50.902;4.314;2024-01-30T05:26:04;12.70;99.90
17715;DHT22;8977;50.902;4.314;2024-01-30T05:28:31;12.70;99.90
17715;DHT22;8977;50.902;4.314;2024-01-30T05:31:00;12.70;99.90
17715;DHT22;8977;50.902;4.314;2024-01-30T05:33:26;12.70;99.90
17715;DHT22;8977;50.902;4.314;2024-01-30T05:35:53;12.70;99.90
17715;DHT22;8977;50.902;4.314;2024-01-30T05:38:20;12.70;99.90
17715;DHT22;8977;50.902;4.314;2024-01-30T05:40:47;12.70;99.90
17715;DHT22;8977;50.902;4.314;2024-01-30T05:43:14;12.80;99.90
17715;DHT22;8977;50.902;4.314;2024-01-30T05:45:41;12.70;99.90
17715;DHT22;8977;50.902;4.314;2024-01-30T05:48:10;12.70;99.90
17715;DHT22;8977;50.902;4.314;2024-01-30T05:50:36;12.80;99.90
17715;DHT22;8977;50.902;4.314;2024-01-30T05:53:04;12.80;99.90
17715;DHT22;8977;50.902;4.314;2024-01-30T05:55:31;12.80;99.90
17715;DHT22;8977;50.902;4.314;2024-01-30T05:57:57;12.90;99.90
17715;DHT22;8977;50.902;4.314;2024-01-30T06:00:24;12.80;99.90
17715;DHT22;8977;50.902;4.314;2024-01-30T06:02:51;12.80;99.90
17715;DHT22;8977;50.902;4.314;2024-01-30T06:05:19;12.70;99.90
17715;DHT22;8977;50.902;4.314;2024-01-30T06:07:46;12.70;99.90
17715;DHT22;8977;50.902;4.314;2024-01-30T06:10:13;12.70;99.90
17715;DHT22;8977;50.902;4.314;2024-01-30T06:12:40;12.80;99.90
17715;DHT22;8977;50.902;4.314;2024-01-30T06:15:08;12.70;99.90
17715;DHT22;8977;50.902;4.314;2024-01-30T06:17:35;12.70;99.90
17715;DHT22;8977;50.902;4.314;2024-01-30T06:20:03;12.70;99.90
17715;DHT22;8977;50.902;4.314;2024-01-30T06:22:31;12.70;99.90
17715;DHT22;8977;50.902;4.314;2024-01-30T06:24:58;12.70;99.90
17715;DHT22;8977;50.902;4.314;2024-01-30T06:27:25;12.70;99.90
17715;DHT22;8977;50.902;4.314;2024-01-30T06:29:52;12.70;99.90
17715;DHT22;8977;50.902;4.314;2024-01-30T06:32:19;12.70;99.90
17715;DHT22;8977;50.902;4.314;2024-01-30T06:34:46;12.70;99.90
17715;DHT22;8977;50.902;4.314;2024-01-30T06:37:13;12.70;99.90
17715;DHT22;8977;50.902;4.314;2024-01-30T06:39:41;12.70;99.90
17715;DHT22;8977;50.902;4.314;2024-01-30T06:42:08;12.70;99.90
17715;DHT22;8977;50.902;4.314;2024-01-30T06:44:35;12.70;99.90
17715;DHT22;8977;50.902;4.314;2024-01-30T06:47:02;12.70;99.90
17715;DHT22;8977;50.902;4.314;2024-01-30T06:49:28;12.70;99.90
17715;DHT22;8977;50.902;4.314;2024-01-30T06:51:55;12.70;99.90
17715;DHT22;8977;50.902;4.314;2024-01-30T06:54:22;12.70;99.90
17715;DHT22;8977;50.902;4.314;2024-01-30T06:56:51;12.70;99.90
17715;DHT22;8977;50.902;4.314;2024-01-30T06:59:17;12.80;99.90
17715;DHT22;8977;50.902;4.314;2024-01-30T07:01:44;12.80;99.90
17715;DHT22;8977;50.902;4.314;2024-01-30T07:04:11;12.70;99.90
17715;DHT22;8977;50.902;4.314;2024-01-30T07:06:38;12.80;99.90
17715;DHT22;8977;50.902;4.314;2024-01-30T07:09:05;12.80;99.90
17715;DHT22;8977;50.902;4.314;2024-01-30T07:11:32;12.80;99.90
17715;DHT22;8977;50.902;4.314;2024-01-30T07:14:00;12.80;99.90
17715;DHT22;8977;50.902;4.314;2024-01-30T07:16:29;12.80;99.90
17715;DHT22;8977;50.902;4.314;2024-01-30T07:18:56;12.70;99.90
17715;DHT22;8977;50.902;4.314;2024-01-30T07:21:23;12.70;99.90
17715;DHT22;8977;50.902;4.314;2024-01-30T07:23:53;12.80;99.90
17715;DHT22;8977;50.902;4.314;2024-01-30T07:26:20;12.70;99.90
17715;DHT22;8977;50.902;4.314;2024-01-30T07:28:47;12.70;99.90
17715;DHT22;8977;50.902;4.314;2024-01-30T07:31:17;12.80;99.90
17715;DHT22;8977;50.902;4.314;2024-01-30T07:33:46;12.80;99.90
17715;DHT22;8977;50.902;4.314;2024-01-30T07:36:13;12.80;99.90
17715;DHT22;8977;50.902;4.314;2024-01-30T07:38:40;12.80;99.90
17715;DHT22;8977;50.902;4.314;2024-01-30T07:41:07;12.80;99.90
17715;DHT22;8977;50.902;4.314;2024-01-30T07:43:34;12.80;99.90
17715;DHT22;8977;50.902;4.314;2024-01-30T07:46:01;12.80;99.90
17715;DHT22;8977;50.902;4.314;2024-01-30T07:48:29;12.80;99.90
17715;DHT22;8977;50.902;4.314;2024-01-30T07:50:56;12.80;99.90
17715;DHT22;8977;50.902;4.314;2024-01-30T07:53:23;12.80;99.90
17715;DHT22;8977;50.902;4.314;2024-01-30T07:55:50;12.80;99.90
17715;DHT22;8977;50.902;4.314;2024-01-30T07:58:17;12.80;99.90
17715;DHT22;8977;50.902;4.314;2024-01-30T08:00:44;12.80;99.90
17715;DHT22;8977;50.902;4.314;2024-01-30T08:03:11;12.80;99.90
17715;DHT22;8977;50.902;4.314;2024-01-30T08:05:40;12.80;99.90
17715;DHT22;8977;50.902;4.314;2024-01-30T08:08:07;12.70;99.90
17715;DHT22;8977;50.902;4.314;2024-01-30T08:10:34;12.70;99.90
17715;DHT22;8977;50.902;4.314;2024-01-30T08:13:01;12.80;99.90
17715;DHT22;8977;50.902;4.314;2024-01-30T08:15:28;12.80;99.90
17715;DHT22;8977;50.902;4.314;2024-01-30T08:17:55;12.80;99.90
17715;DHT22;8977;50.902;4.314;2024-01-30T08:20:23;12.80;99.90
17715;DHT22;8977;50.902;4.314;2024-01-30T08:22:52;12.80;99.90
17715;DHT22;8977;50.902;4.314;2024-01-30T08:25:18;12.90;99.90
17715;DHT22;8977;50.902;4.314;2024-01-30T08:27:45;12.80;99.90
17715;DHT22;8977;50.902;4.314;2024-01-30T08:30:12;12.80;99.90
17715;DHT22;8977;50.902;4.314;2024-01-30T08:32:39;12.70;99.90
17715;DHT22;8977;50.902;4.314;2024-01-30T08:35:08;12.80;99.90
17715;DHT22;8977;50.902;4.314;2024-01-30T08:37:35;12.80;99.90
17715;DHT22;8977;50.902;4.314;2024-01-30T08:40:04;12.80;99.90
17715;DHT22;8977;50.902;4.314;2024-01-30T08:42:31;12.80;99.90
17715;DHT22;8977;50.902;4.314;2024-01-30T08:44:58;12.80;99.90
17715;DHT22;8977;50.902;4.314;2024-01-30T08:47:25;12.80;99.90
17715;DHT22;8977;50.902;4.314;2024-01-30T08:49:52;12.80;99.90
17715;DHT22;8977;50.902;4.314;2024-01-30T08:52:19;12.80;99.90
17715;DHT22;8977;50.902;4.314;2024-01-30T08:54:46;12.80;99.90
17715;DHT22;8977;50.902;4.314;2024-01-30T08:57:14;12.80;99.90
17715;DHT22;8977;50.902;4.314;2024-01-30T08:59:41;12.90;99.90
17715;DHT22;8977;50.902;4.314;2024-01-30T09:02:10;12.90;99.90
17715;DHT22;8977;50.902;4.314;2024-01-30T09:04:38;12.80;99.90
17715;DHT22;8977;50.902;4.314;2024-01-30T09:07:05;12.80;99.90
17715;DHT22;8977;50.902;4.314;2024-01-30T09:09:34;12.80;99.90
17715;DHT22;8977;50.902;4.314;2024-01-30T09:12:01;12.80;99.90
17715;DHT22;8977;50.902;4.314;2024-01-30T09:14:33;12.90;99.90
17715;DHT22;8977;50.902;4.314;2024-01-30T09:17:00;12.90;99.90
17715;DHT22;8977;50.902;4.314;2024-01-30T09:19:28;12.90;99.90
17715;DHT22;8977;50.902;4.314;2024-01-30T09:21:55;12.90;99.90
17715;DHT22;8977;50.902;4.314;2024-01-30T09:24:22;12.90;99.90
17715;DHT22;8977;50.902;4.314;2024-01-30T09:26:49;12.90;99.90
17715;DHT22;8977;50.902;4.314;2024-01-30T09:29:16;12.90;99.90
17715;DHT22;8977;50.902;4.314;2024-01-30T09:31:45;12.90;99.90
17715;DHT22;8977;50.902;4.314;2024-01-30T09:34:12;12.90;99.90
17715;DHT22;8977;50.902;4.314;2024-01-30T09:36:39;12.90;99.90
17715;DHT22;8977;50.902;4.314;2024-01-30T09:39:06;12.90;99.90
17715;DHT22;8977;50.902;4.314;2024-01-30T09:41:39;12.90;99.90
17715;DHT22;8977;50.902;4.314;2024-01-30T09:44:09;12.90;99.90
17715;DHT22;8977;50.902;4.314;2024-01-30T09:46:38;12.90;99.90
17715;DHT22;8977;50.902;4.314;2024-01-30T09:49:08;13.00;99.90
17715;DHT22;8977;50.902;4.314;2024-01-30T09:51:35;12.90;99.90
17715;DHT22;8977;50.902;4.314;2024-01-30T09:54:03;12.90;99.90
17715;DHT22;8977;50.902;4.314;2024-01-30T09:56:30;13.00;99.90
17715;DHT22;8977;50.902;4.314;2024-01-30T09:58:59;12.90;99.90
17715;DHT22;8977;50.902;4.314;2024-01-30T10:01:26;12.90;99.90
17715;DHT22;8977;50.902;4.314;2024-01-30T10:03:54;12.90;99.90
17715;DHT22;8977;50.902;4.314;2024-01-30T10:06:24;13.00;99.90
17715;DHT22;8977;50.902;4.314;2024-01-30T10:08:51;12.90;99.90
17715;DHT22;8977;50.902;4.314;2024-01-30T10:11:18;12.90;99.90
17715;DHT22;8977;50.902;4.314;2024-01-30T10:13:45;12.90;99.90
17715;DHT22;8977;50.902;4.314;2024-01-30T10:16:14;12.90;99.90
17715;DHT22;8977;50.902;4.314;2024-01-30T10:18:42;12.90;99.90
17715;DHT22;8977;50.902;4.314;2024-01-30T10:21:09;13.00;99.90
17715;DHT22;8977;50.902;4.314;2024-01-30T10:23:38;12.90;99.90
17715;DHT22;8977;50.902;4.314;2024-01-30T10:26:06;12.90;99.90
17715;DHT22;8977;50.902;4.314;2024-01-30T10:28:33;12.90;99.90
17715;DHT22;8977;50.902;4.314;2024-01-30T10:31:01;12.90;99.90
17715;DHT22;8977;50.902;4.314;2024-01-30T10:33:29;12.90;99.90
17715;DHT22;8977;50.902;4.314;2024-01-30T10:36:00;12.90;99.90
17715;DHT22;8977;50.902;4.314;2024-01-30T10:38:29;13.00;99.90
17715;DHT22;8977;50.902;4.314;2024-01-30T10:40:59;12.90;99.90
17715;DHT22;8977;50.902;4.314;2024-01-30T10:43:31;12.90;99.90
17715;DHT22;8977;50.902;4.314;2024-01-30T10:46:05;12.90;99.90
17715;DHT22;8977;50.902;4.314;2024-01-30T10:48:36;12.80;99.90
17715;DHT22;8977;50.902;4.314;2024-01-30T10:51:09;12.80;99.90
17715;DHT22;8977;50.902;4.314;2024-01-30T10:53:38;12.90;99.90
17715;DHT22;8977;50.902;4.314;2024-01-30T10:56:08;12.90;99.90
17715;DHT22;8977;50.902;4.314;2024-01-30T10:58:37;12.90;99.90
17715;DHT22;8977;50.902;4.314;2024-01-30T11:01:05;12.90;99.90
17715;DHT22;8977;50.902;4.314;2024-01-30T11:03:33;12.80;99.90
17715;DHT22;8977;50.902;4.314;2024-01-30T11:06:02;12.80;99.90
17715;DHT22;8977;50.902;4.314;2024-01-30T11:08:32;12.80;99.90
17715;DHT22;8977;50.902;4.314;2024-01-30T11:10:59;12.80;99.90
17715;DHT22;8977;50.902;4.314;2024-01-30T11:13:31;12.70;99.90
17715;DHT22;8977;50.902;4.314;2024-01-30T11:16:00;12.80;99.90
17715;DHT22;8977;50.902;4.314;2024-01-30T11:18:30;12.80;99.90
17715;DHT22;8977;50.902;4.314;2024-01-30T11:20:57;12.80;99.90
17715;DHT22;8977;50.902;4.314;2024-01-30T11:23:26;12.70;99.90
17715;DHT22;8977;50.902;4.314;2024-01-30T11:25:54;12.70;99.90
17715;DHT22;8977;50.902;4.314;2024-01-30T11:28:21;12.70;99.90
17715;DHT22;8977;50.902;4.314;2024-01-30T11:30:50;12.60;99.90
17715;DHT22;8977;50.902;4.314;2024-01-30T11:33:28;12.60;99.90
17715;DHT22;8977;50.902;4.314;2024-01-30T11:35:57;12.70;99.90
17715;DHT22;8977;50.902;4.314;2024-01-30T11:38:26;12.70;99.90
17715;DHT22;8977;50.902;4.314;2024-01-30T11:40:54;12.70;99.90
17715;DHT22;8977;50.902;4.314;2024-01-30T11:43:23;12.60;99.90
17715;DHT22;8977;50.902;4.314;2024-01-30T11:45:51;12.60;99.90
17715;DHT22;8977;50.902;4.314;2024-01-30T11:48:18;12.70;99.90
17715;DHT22;8977;50.902;4.314;2024-01-30T11:50:46;12.70;99.90
17715;DHT22;8977;50.902;4.314;2024-01-30T11:53:13;12.70;99.90
17715;DHT22;8977;50.902;4.314;2024-01-30T11:55:40;12.60;99.90
17715;DHT22;8977;50.902;4.314;2024-01-30T11:58:07;12.70;99.90
17715;DHT22;8977;50.902;4.314;2024-01-30T12:00:34;12.70;99.90
17715;DHT22;8977;50.902;4.314;2024-01-30T12:03:03;12.80;99.90
17715;DHT22;8977;50.902;4.314;2024-01-30T12:05:32;12.60;99.90
17715;DHT22;8977;50.902;4.314;2024-01-30T12:07:59;12.60;99.90
17715;DHT22;8977;50.902;4.314;2024-01-30T12:10:26;12.60;99.90
17715;DHT22;8977;50.902;4.314;2024-01-30T12:12:54;12.60;99.90
17715;DHT22;8977;50.902;4.314;2024-01-30T12:15:22;12.50;99.90
17715;DHT22;8977;50.902;4.314;2024-01-30T12:17:49;12.60;99.90
17715;DHT22;8977;50.902;4.314;2024-01-30T12:20:19;12.70;99.90
17715;DHT22;8977;50.902;4.314;2024-01-30T12:22:48;12.80;99.90
17715;DHT22;8977;50.902;4.314;2024-01-30T12:25:16;12.80;99.90
17715;DHT22;8977;50.902;4.314;2024-01-30T12:27:44;12.70;99.90
17715;DHT22;8977;50.902;4.314;2024-01-30T12:30:12;12.80;99.90
17715;DHT22;8977;50.902;4.314;2024-01-30T12:32:40;12.80;99.90
17715;DHT22;8977;50.902;4.314;2024-01-30T12:35:09;12.70;99.90
17715;DHT22;8977;50.902;4.314;2024-01-30T12:37:37;12.80;99.90
17715;DHT22;8977;50.902;4.314;2024-01-30T12:40:06;12.70;99.90
17715;DHT22;8977;50.902;4.314;2024-01-30T12:42:33;12.70;99.90
17715;DHT22;8977;50.902;4.314;2024-01-30T12:45:02;12.60;99.90
17715;DHT22;8977;50.902;4.314;2024-01-30T12:47:30;12.70;99.90
17715;DHT22;8977;50.902;4.314;2024-01-30T12:49:57;12.50;99.90
17715;DHT22;8977;50.902;4.314;2024-01-30T12:52:24;12.60;99.90
17715;DHT22;8977;50.902;4.314;2024-01-30T12:54:52;12.70;99.90
17715;DHT22;8977;50.902;4.314;2024-01-30T12:57:20;12.70;99.90
17715;DHT22;8977;50.902;4.314;2024-01-30T12:59:47;12.70;99.90
17715;DHT22;8977;50.902;4.314;2024-01-30T13:02:15;12.70;99.90
17715;DHT22;8977;50.902;4.314;2024-01-30T13:04:42;12.80;99.90
17715;DHT22;8977;50.902;4.314;2024-01-30T13:07:10;12.90;99.90
17715;DHT22;8977;50.902;4.314;2024-01-30T13:09:37;12.90;99.90
17715;DHT22;8977;50.902;4.314;2024-01-30T13:12:05;13.00;99.90
17715;DHT22;8977;50.902;4.314;2024-01-30T13:14:32;12.90;99.90
17715;DHT22;8977;50.902;4.314;2024-01-30T13:16:59;13.00;99.90
17715;DHT22;8977;50.902;4.314;2024-01-30T13:19:26;13.00;99.90
17715;DHT22;8977;50.902;4.314;2024-01-30T13:21:53;13.10;99.90
17715;DHT22;8977;50.902;4.314;2024-01-30T13:24:20;13.10;99.90
17715;DHT22;8977;50.902;4.314;2024-01-30T13:26:48;13.20;99.90
17715;DHT22;8977;50.902;4.314;2024-01-30T13:29:17;13.40;99.90
17715;DHT22;8977;50.902;4.314;2024-01-30T13:31:44;13.40;99.90
17715;DHT22;8977;50.902;4.314;2024-01-30T13:34:12;13.30;99.90
17715;DHT22;8977;50.902;4.314;2024-01-30T13:36:40;13.40;99.90
17715;DHT22;8977;50.902;4.314;2024-01-30T13:39:07;13.20;99.90
17715;DHT22;8977;50.902;4.314;2024-01-30T13:41:36;13.10;99.90
17715;DHT22;8977;50.902;4.314;2024-01-30T13:44:03;13.00;99.90
17715;DHT22;8977;50.902;4.314;2024-01-30T13:46:32;13.00;99.90
17715;DHT22;8977;50.902;4.314;2024-01-30T13:48:59;12.90;99.90
17715;DHT22;8977;50.902;4.314;2024-01-30T13:51:26;12.80;99.90
17715;DHT22;8977;50.902;4.314;2024-01-30T13:53:52;12.80;99.90
17715;DHT22;8977;50.902;4.314;2024-01-30T13:56:20;12.80;99.90
17715;DHT22;8977;50.902;4.314;2024-01-30T13:58:48;12.80;99.90
17715;DHT22;8977;50.902;4.314;2024-01-30T14:01:15;12.80;99.90
17715;DHT22;8977;50.902;4.314;2024-01-30T14:03:44;12.70;99.90
17715;DHT22;8977;50.902;4.314;2024-01-30T14:06:11;12.70;99.90
17715;DHT22;8977;50.902;4.314;2024-01-30T14:08:38;12.60;99.90
17715;DHT22;8977;50.902;4.314;2024-01-30T14:11:05;12.60;99.90
17715;DHT22;8977;50.902;4.314;2024-01-30T14:13:32;12.70;99.90
17715;DHT22;8977;50.902;4.314;2024-01-30T14:16:00;12.60;99.90
17715;DHT22;8977;50.902;4.314;2024-01-30T14:18:27;12.60;99.90
17715;DHT22;8977;50.902;4.314;2024-01-30T14:20:55;12.60;99.90
17715;DHT22;8977;50.902;4.314;2024-01-30T14:23:22;12.60;99.90
17715;DHT22;8977;50.902;4.314;2024-01-30T14:25:49;12.60;99.90
17715;DHT22;8977;50.902;4.314;2024-01-30T14:28:17;12.60;99.90
17715;DHT22;8977;50.902;4.314;2024-01-30T14:30:44;12.50;99.90
17715;DHT22;8977;50.902;4.314;2024-01-30T14:33:11;12.50;99.90
17715;DHT22;8977;50.902;4.314;2024-01-30T14:35:38;12.50;99.90
17715;DHT22;8977;50.902;4.314;2024-01-30T14:38:07;12.50;99.90
17715;DHT22;8977;50.902;4.314;2024-01-30T14:40:35;12.50;99.90
17715;DHT22;8977;50.902;4.314;2024-01-30T14:43:02;12.50;99.90
17715;DHT22;8977;50.902;4.314;2024-01-30T14:45:29;12.40;99.90
17715;DHT22;8977;50.902;4.314;2024-01-30T14:47:57;12.40;99.90
17715;DHT22;8977;50.902;4.314;2024-01-30T14:50:25;12.40;99.90
17715;DHT22;8977;50.902;4.314;2024-01-30T14:52:53;12.30;99.90
17715;DHT22;8977;50.902;4.314;2024-01-30T14:55:22;12.40;99.90
17715;DHT22;8977;50.902;4.314;2024-01-30T14:57:49;12.30;99.90
17715;DHT22;8977;50.902;4.314;2024-01-30T15:00:17;12.30;99.90
17715;DHT22;8977;50.902;4.314;2024-01-30T15:02:44;12.40;99.90
17715;DHT22;8977;50.902;4.314;2024-01-30T15:05:12;12.40;99.90
17715;DHT22;8977;50.902;4.314;2024-01-30T15:07:40;12.30;99.90
17715;DHT22;8977;50.902;4.314;2024-01-30T15:10:07;12.30;99.90
17715;DHT22;8977;50.902;4.314;2024-01-30T15:12:36;12.30;99.90
17715;DHT22;8977;50.902;4.314;2024-01-30T15:15:07;12.30;99.90
17715;DHT22;8977;50.902;4.314;2024-01-30T15:17:34;12.20;99.90
17715;DHT22;8977;50.902;4.314;2024-01-30T15:20:01;12.20;99.90
17715;DHT22;8977;50.902;4.314;2024-01-30T15:22:29;12.10;99.90
17715;DHT22;8977;50.902;4.314;2024-01-30T15:24:56;12.20;99.90
17715;DHT22;8977;50.902;4.314;2024-01-30T15:27:23;12.20;99.90
17715;DHT22;8977;50.902;4.314;2024-01-30T15:29:52;12.20;99.90
17715;DHT22;8977;50.902;4.314;2024-01-30T15:32:18;12.20;99.90
17715;DHT22;8977;50.902;4.314;2024-01-30T15:34:46;12.30;99.90
17715;DHT22;8977;50.902;4.314;2024-01-30T15:37:13;12.20;99.90
17715;DHT22;8977;50.902;4.314;2024-01-30T15:39:40;12.20;99.90
17715;DHT22;8977;50.902;4.314;2024-01-30T15:42:07;12.20;99.90
17715;DHT22;8977;50.902;4.314;2024-01-30T15:44:34;12.20;99.90
17715;DHT22;8977;50.902;4.314;2024-01-30T15:47:02;12.20;99.90